sensor_id;sensor_type;location;lat;lon;timestamp;pressure;altitude;pressure_sealevel;temperature;humidity
85266;BME280;75676;49.522;19.724;2024-01-11T15:49:56;94130.06;;;-2.75;73.31
85266;BME280;75676;49.522;19.724;2024-01-11T15:52:24;94128.47;;;-2.83;73.06
85266;BME280;75676;49.522;19.724;2024-01-11T15:54:50;94128.63;;;-2.72;74.29
85266;BME280;75676;49.522;19.724;2024-01-11T15:57:16;94126.75;;;-2.75;75.45
85266;BME280;75676;49.522;19.724;2024-01-11T15:59:42;94120.38;;;-2.81;78.27
85266;BME280;75676;49.522;19.724;2024-01-11T16:02:08;94113.97;;;-2.87;76.04
85266;BME280;75676;49.522;19.724;2024-01-11T16:04:35;94117.34;;;-2.83;75.59
85266;BME280;75676;49.522;19.724;2024-01-11T16:07:01;94108.72;;;-2.91;77.57
85266;BME280;75676;49.522;19.724;2024-01-11T16:09:28;94111.94;;;-2.98;78.12
85266;BME280;75676;49.522;19.724;2024-01-11T16:11:55;94106.13;;;-2.91;76.10
85266;BME280;75676;49.522;19.724;2024-01-11T16:14:22;94105.56;;;-3.04;76.11
85266;BME280;75676;49.522;19.724;2024-01-11T16:16:48;94104.25;;;-2.94;77.10
85266;BME280;75676;49.522;19.724;2024-01-11T16:19:14;94107.44;;;-3.01;77.56
85266;BME280;75676;49.522;19.724;2024-01-11T16:21:40;94099.84;;;-3.13;77.08
85266;BME280;75676;49.522;19.724;2024-01-11T16:24:08;94101.44;;;-3.27;77.61
85266;BME280;75676;49.522;19.724;2024-01-11T16:26:34;94095.69;;;-3.17;77.57
85266;BME280;75676;49.522;19.724;2024-01-11T16:29:02;94099.72;;;-3.20;78.40
85266;BME280;75676;49.522;19.724;2024-01-11T16:31:27;94104.09;;;-3.24;77.49
85266;BME280;75676;49.522;19.724;2024-01-11T16:33:54;94100.09;;;-3.41;78.14
85266;BME280;75676;49.522;19.724;2024-01-11T16:36:23;94100.63;;;-3.51;79.17
85266;BME280;75676;49.522;19.724;2024-01-11T16:38:49;94107.38;;;-3.46;78.46
85266;BME280;75676;49.522;19.724;2024-01-11T16:41:15;94115.25;;;-3.58;78.59
85266;BME280;75676;49.522;19.724;2024-01-11T16:43:43;94111.22;;;-3.56;78.70
85266;BME280;75676;49.522;19.724;2024-01-11T16:46:17;94122.72;;;-3.72;79.64
85266;BME280;75676;49.522;19.724;2024-01-11T16:48:43;94120.00;;;-3.79;79.91
85266;BME280;75676;49.522;19.724;2024-01-11T16:51:09;94111.75;;;-3.85;79.61
85266;BME280;75676;49.522;19.724;2024-01-11T16:53:35;94116.44;;;-3.71;79.04
85266;BME280;75676;49.522;19.724;2024-01-11T16:56:01;94135.91;;;-3.58;78.00
85266;BME280;75676;49.522;19.724;2024-01-11T16:58:27;94140.66;;;-3.60;76.29
85266;BME280;75676;49.522;19.724;2024-01-11T17:00:53;94137.00;;;-3.78;76.26
85266;BME280;75676;49.522;19.724;2024-01-11T17:03:19;94133.28;;;-3.77;75.96
85266;BME280;75676;49.522;19.724;2024-01-11T17:05:45;94143.03;;;-3.71;75.21
85266;BME280;75676;49.522;19.724;2024-01-11T17:08:11;94137.97;;;-3.67;75.17
85266;BME280;75676;49.522;19.724;2024-01-11T17:10:37;94139.41;;;-3.86;75.93
85266;BME280;75676;49.522;19.724;2024-01-11T17:13:05;94136.25;;;-3.79;75.51
85266;BME280;75676;49.522;19.724;2024-01-11T17:15:30;94135.31;;;-3.87;76.11
85266;BME280;75676;49.522;19.724;2024-01-11T17:17:57;94135.47;;;-3.79;75.23
85266;BME280;75676;49.522;19.724;2024-01-11T17:20:23;94131.94;;;-3.91;75.11
85266;BME280;75676;49.522;19.724;2024-01-11T17:22:49;94144.41;;;-3.93;75.27
85266;BME280;75676;49.522;19.724;2024-01-11T17:25:16;94122.47;;;-3.83;75.00
85266;BME280;75676;49.522;19.724;2024-01-11T17:27:42;94121.88;;;-3.96;74.49
85266;BME280;75676;49.522;19.724;2024-01-11T17:30:08;94115.84;;;-3.84;74.81
85266;BME280;75676;49.522;19.724;2024-01-11T17:32:34;94117.94;;;-3.90;74.41
85266;BME280;75676;49.522;19.724;2024-01-11T17:35:01;94112.72;;;-3.74;74.80
85266;BME280;75676;49.522;19.724;2024-01-11T17:37:27;94112.25;;;-3.79;75.13
85266;BME280;75676;49.522;19.724;2024-01-11T17:39:53;94117.94;;;-3.70;74.92
85266;BME280;75676;49.522;19.724;2024-01-11T17:42:19;94123.94;;;-3.66;75.26
85266;BME280;75676;49.522;19.724;2024-01-11T17:44:45;94123.22;;;-3.83;75.55
85266;BME280;75676;49.522;19.724;2024-01-11T17:47:11;94119.38;;;-3.73;74.34
85266;BME280;75676;49.522;19.724;2024-01-11T17:49:37;94124.63;;;-3.69;75.48
85266;BME280;75676;49.522;19.724;2024-01-11T17:52:04;94116.47;;;-3.52;74.57
85266;BME280;75676;49.522;19.724;2024-01-11T17:54:31;94124.06;;;-3.78;74.78
85266;BME280;75676;49.522;19.724;2024-01-11T17:56:57;94140.91;;;-3.85;75.88
85266;BME280;75676;49.522;19.724;2024-01-11T17:59:23;94143.13;;;-3.83;74.57
85266;BME280;75676;49.522;19.724;2024-01-11T18:01:49;94139.16;;;-3.81;74.57
85266;BME280;75676;49.522;19.724;2024-01-11T18:04:15;94154.38;;;-3.75;75.49
85266;BME280;75676;49.522;19.724;2024-01-11T18:06:44;94155.56;;;-3.73;75.08
85266;BME280;75676;49.522;19.724;2024-01-11T18:09:11;94143.94;;;-3.63;75.81
85266;BME280;75676;49.522;19.724;2024-01-11T18:11:37;94145.22;;;-3.73;75.02
85266;BME280;75676;49.522;19.724;2024-01-11T18:14:03;94140.38;;;-3.74;76.52
85266;BME280;75676;49.522;19.724;2024-01-11T18:16:30;94139.84;;;-3.84;76.50
85266;BME280;75676;49.522;19.724;2024-01-11T18:18:56;94142.22;;;-3.75;74.71
85266;BME280;75676;49.522;19.724;2024-01-11T18:21:23;94146.41;;;-3.86;75.33
85266;BME280;75676;49.522;19.724;2024-01-11T18:23:50;94151.78;;;-3.75;76.11
85266;BME280;75676;49.522;19.724;2024-01-11T18:26:16;94153.16;;;-3.82;76.32
85266;BME280;75676;49.522;19.724;2024-01-11T18:28:42;94154.97;;;-3.82;76.05
85266;BME280;75676;49.522;19.724;2024-01-11T18:31:13;94150.88;;;-3.83;77.05
85266;BME280;75676;49.522;19.724;2024-01-11T18:33:40;94150.97;;;-3.79;76.97
85266;BME280;75676;49.522;19.724;2024-01-11T18:36:07;94144.88;;;-3.71;78.06
85266;BME280;75676;49.522;19.724;2024-01-11T18:38:34;94148.31;;;-3.83;78.75
85266;BME280;75676;49.522;19.724;2024-01-11T18:41:00;94139.38;;;-3.70;80.01
85266;BME280;75676;49.522;19.724;2024-01-11T18:43:26;94139.97;;;-3.76;80.57
85266;BME280;75676;49.522;19.724;2024-01-11T18:45:53;94143.84;;;-3.67;80.54
85266;BME280;75676;49.522;19.724;2024-01-11T18:48:20;94140.88;;;-3.69;80.50
85266;BME280;75676;49.522;19.724;2024-01-11T18:50:47;94140.16;;;-3.85;82.55
85266;BME280;75676;49.522;19.724;2024-01-11T18:53:13;94139.38;;;-4.05;82.84
85266;BME280;75676;49.522;19.724;2024-01-11T18:55:39;94143.09;;;-4.02;83.40
85266;BME280;75676;49.522;19.724;2024-01-11T18:58:07;94137.25;;;-3.99;83.08
85266;BME280;75676;49.522;19.724;2024-01-11T19:00:33;94140.84;;;-4.04;82.36
85266;BME280;75676;49.522;19.724;2024-01-11T19:03:00;94145.38;;;-4.01;82.37
85266;BME280;75676;49.522;19.724;2024-01-11T19:05:29;94137.19;;;-4.03;81.94
85266;BME280;75676;49.522;19.724;2024-01-11T19:07:57;94137.19;;;-4.03;79.80
85266;BME280;75676;49.522;19.724;2024-01-11T19:10:25;94142.09;;;-3.98;79.71
85266;BME280;75676;49.522;19.724;2024-01-11T19:12:54;94146.13;;;-4.00;80.27
85266;BME280;75676;49.522;19.724;2024-01-11T19:15:23;94141.03;;;-3.97;79.82
85266;BME280;75676;49.522;19.724;2024-01-11T19:17:49;94134.44;;;-3.94;79.84
85266;BME280;75676;49.522;19.724;2024-01-11T19:20:16;94138.94;;;-3.91;80.94
85266;BME280;75676;49.522;19.724;2024-01-11T19:22:44;94133.38;;;-4.09;81.73
85266;BME280;75676;49.522;19.724;2024-01-11T19:25:10;94133.44;;;-3.90;81.13
85266;BME280;75676;49.522;19.724;2024-01-11T19:27:36;94141.84;;;-3.93;81.21
85266;BME280;75676;49.522;19.724;2024-01-11T19:30:04;94144.63;;;-4.01;81.25
85266;BME280;75676;49.522;19.724;2024-01-11T19:32:34;94142.03;;;-4.01;81.40
85266;BME280;75676;49.522;19.724;2024-01-11T19:35:01;94153.19;;;-4.13;82.31
85266;BME280;75676;49.522;19.724;2024-01-11T19:37:27;94146.28;;;-4.09;82.71
85266;BME280;75676;49.522;19.724;2024-01-11T19:39:53;94140.78;;;-4.07;82.39
85266;BME280;75676;49.522;19.724;2024-01-11T19:42:20;94149.94;;;-4.10;82.44
85266;BME280;75676;49.522;19.724;2024-01-11T19:44:47;94148.97;;;-4.05;81.91
85266;BME280;75676;49.522;19.724;2024-01-11T19:47:13;94151.03;;;-4.11;81.88
85266;BME280;75676;49.522;19.724;2024-01-11T19:49:39;94155.44;;;-3.96;81.46
85266;BME280;75676;49.522;19.724;2024-01-11T19:52:05;94161.75;;;-3.93;81.97
85266;BME280;75676;49.522;19.724;2024-01-11T19:54:32;94160.38;;;-4.06;82.25
85266;BME280;75676;49.522;19.724;2024-01-11T19:56:58;94151.31;;;-3.81;81.80
85266;BME280;75676;49.522;19.724;2024-01-11T19:59:24;94156.00;;;-3.87;81.55
85266;BME280;75676;49.522;19.724;2024-01-11T20:01:51;94154.41;;;-3.91;80.95
85266;BME280;75676;49.522;19.724;2024-01-11T20:04:17;94153.00;;;-4.04;81.79
85266;BME280;75676;49.522;19.724;2024-01-11T20:06:45;94151.13;;;-4.07;81.00
85266;BME280;75676;49.522;19.724;2024-01-11T20:09:11;94148.47;;;-4.11;80.39
85266;BME280;75676;49.522;19.724;2024-01-11T20:11:41;94153.44;;;-4.02;80.83
85266;BME280;75676;49.522;19.724;2024-01-11T20:14:07;94154.03;;;-4.09;80.90
85266;BME280;75676;49.522;19.724;2024-01-11T20:16:35;94152.44;;;-4.13;81.48
85266;BME280;75676;49.522;19.724;2024-01-11T20:19:01;94153.78;;;-4.19;81.92
85266;BME280;75676;49.522;19.724;2024-01-11T20:21:27;94155.09;;;-4.10;81.28
85266;BME280;75676;49.522;19.724;2024-01-11T20:23:53;94152.53;;;-4.10;81.75
85266;BME280;75676;49.522;19.724;2024-01-11T20:26:20;94155.53;;;-4.08;81.26
85266;BME280;75676;49.522;19.724;2024-01-11T20:28:46;94158.44;;;-4.09;81.01
85266;BME280;75676;49.522;19.724;2024-01-11T20:31:12;94152.13;;;-4.12;81.47
85266;BME280;75676;49.522;19.724;2024-01-11T20:33:38;94160.44;;;-4.03;80.77
85266;BME280;75676;49.522;19.724;2024-01-11T20:36:04;94157.84;;;-4.03;81.06
85266;BME280;75676;49.522;19.724;2024-01-11T20:38:31;94156.72;;;-4.21;80.89
85266;BME280;75676;49.522;19.724;2024-01-11T20:40:57;94162.34;;;-4.15;81.03
85266;BME280;75676;49.522;19.724;2024-01-11T20:43:23;94159.63;;;-4.22;81.45
85266;BME280;75676;49.522;19.724;2024-01-11T20:45:50;94160.13;;;-4.17;81.10
85266;BME280;75676;49.522;19.724;2024-01-11T20:48:18;94156.59;;;-4.09;81.42
85266;BME280;75676;49.522;19.724;2024-01-11T20:50:44;94153.94;;;-4.12;81.15
85266;BME280;75676;49.522;19.724;2024-01-11T20:53:10;94146.63;;;-4.10;81.84
85266;BME280;75676;49.522;19.724;2024-01-11T20:55:36;94156.72;;;-4.21;82.35
85266;BME280;75676;49.522;19.724;2024-01-11T20:58:03;94168.38;;;-4.27;82.55
85266;BME280;75676;49.522;19.724;2024-01-11T21:00:30;94159.88;;;-4.12;81.68
85266;BME280;75676;49.522;19.724;2024-01-11T21:02:57;94161.13;;;-4.21;82.78
85266;BME280;75676;49.522;19.724;2024-01-11T21:05:24;94170.94;;;-4.11;82.17
85266;BME280;75676;49.522;19.724;2024-01-11T21:07:51;94160.88;;;-4.16;82.03
85266;BME280;75676;49.522;19.724;2024-01-11T21:10:17;94171.19;;;-4.16;82.15
85266;BME280;75676;49.522;19.724;2024-01-11T21:12:44;94169.69;;;-4.02;82.11
85266;BME280;75676;49.522;19.724;2024-01-11T21:15:10;94173.91;;;-3.94;82.24
85266;BME280;75676;49.522;19.724;2024-01-11T21:17:36;94177.91;;;-3.96;83.09
85266;BME280;75676;49.522;19.724;2024-01-11T21:20:03;94173.66;;;-4.04;83.48
85266;BME280;75676;49.522;19.724;2024-01-11T21:22:30;94182.16;;;-4.04;84.14
85266;BME280;75676;49.522;19.724;2024-01-11T21:24:56;94185.75;;;-4.08;84.19
85266;BME280;75676;49.522;19.724;2024-01-11T21:27:24;94191.25;;;-3.94;84.25
85266;BME280;75676;49.522;19.724;2024-01-11T21:29:50;94186.72;;;-3.82;83.61
85266;BME280;75676;49.522;19.724;2024-01-11T21:32:16;94207.91;;;-3.92;82.48
85266;BME280;75676;49.522;19.724;2024-01-11T21:34:42;94190.16;;;-3.93;83.52
85266;BME280;75676;49.522;19.724;2024-01-11T21:37:07;94193.56;;;-3.89;82.05
85266;BME280;75676;49.522;19.724;2024-01-11T21:39:33;94199.31;;;-3.80;81.87
85266;BME280;75676;49.522;19.724;2024-01-11T21:42:00;94199.63;;;-3.82;82.29
85266;BME280;75676;49.522;19.724;2024-01-11T21:44:26;94209.31;;;-3.94;83.10
85266;BME280;75676;49.522;19.724;2024-01-11T21:46:52;94211.81;;;-3.98;82.95
85266;BME280;75676;49.522;19.724;2024-01-11T21:49:18;94206.56;;;-4.01;82.99
85266;BME280;75676;49.522;19.724;2024-01-11T21:51:45;94209.09;;;-4.05;82.82
85266;BME280;75676;49.522;19.724;2024-01-11T21:54:13;94207.81;;;-3.79;82.83
85266;BME280;75676;49.522;19.724;2024-01-11T21:56:39;94213.13;;;-3.88;82.41
85266;BME280;75676;49.522;19.724;2024-01-11T21:59:05;94211.91;;;-3.94;82.73
85266;BME280;75676;49.522;19.724;2024-01-11T22:01:39;94219.66;;;-3.94;82.96
85266;BME280;75676;49.522;19.724;2024-01-11T22:04:06;94212.31;;;-4.08;83.65
85266;BME280;75676;49.522;19.724;2024-01-11T22:06:33;94217.56;;;-4.04;83.21
85266;BME280;75676;49.522;19.724;2024-01-11T22:08:59;94213.50;;;-4.05;82.78
85266;BME280;75676;49.522;19.724;2024-01-11T22:11:25;94213.91;;;-4.19;83.63
85266;BME280;75676;49.522;19.724;2024-01-11T22:13:51;94224.03;;;-4.42;84.27
85266;BME280;75676;49.522;19.724;2024-01-11T22:16:17;94223.06;;;-4.21;83.80
85266;BME280;75676;49.522;19.724;2024-01-11T22:18:44;94224.16;;;-4.22;83.24
85266;BME280;75676;49.522;19.724;2024-01-11T22:21:10;94224.56;;;-4.20;83.70
85266;BME280;75676;49.522;19.724;2024-01-11T22:23:36;94220.88;;;-4.04;82.67
85266;BME280;75676;49.522;19.724;2024-01-11T22:26:02;94222.91;;;-4.13;83.39
85266;BME280;75676;49.522;19.724;2024-01-11T22:28:29;94228.50;;;-4.11;83.20
85266;BME280;75676;49.522;19.724;2024-01-11T22:30:55;94221.91;;;-4.08;83.56
85266;BME280;75676;49.522;19.724;2024-01-11T22:33:21;94218.81;;;-3.98;82.97
85266;BME280;75676;49.522;19.724;2024-01-11T22:35:46;94220.25;;;-4.16;83.50
85266;BME280;75676;49.522;19.724;2024-01-11T22:38:12;94218.50;;;-4.12;83.14
85266;BME280;75676;49.522;19.724;2024-01-11T22:40:38;94223.47;;;-4.04;82.97
85266;BME280;75676;49.522;19.724;2024-01-11T22:43:05;94219.81;;;-4.03;83.17
85266;BME280;75676;49.522;19.724;2024-01-11T22:45:31;94226.22;;;-4.12;82.97
85266;BME280;75676;49.522;19.724;2024-01-11T22:48:00;94228.81;;;-4.12;83.72
85266;BME280;75676;49.522;19.724;2024-01-11T22:50:25;94233.16;;;-4.01;83.30
85266;BME280;75676;49.522;19.724;2024-01-11T22:52:52;94238.97;;;-4.04;82.99
85266;BME280;75676;49.522;19.724;2024-01-11T22:55:18;94233.53;;;-3.99;83.48
85266;BME280;75676;49.522;19.724;2024-01-11T22:57:43;94238.56;;;-4.06;83.80
85266;BME280;75676;49.522;19.724;2024-01-11T23:00:10;94236.97;;;-3.95;82.42
85266;BME280;75676;49.522;19.724;2024-01-11T23:02:51;94230.47;;;-4.20;82.22
85266;BME280;75676;49.522;19.724;2024-01-11T23:05:17;94230.81;;;-4.06;82.40
85266;BME280;75676;49.522;19.724;2024-01-11T23:07:44;94235.97;;;-4.06;81.24
85266;BME280;75676;49.522;19.724;2024-01-11T23:10:10;94234.97;;;-4.17;82.55
85266;BME280;75676;49.522;19.724;2024-01-11T23:12:40;94234.97;;;-4.17;82.67
85266;BME280;75676;49.522;19.724;2024-01-11T23:15:08;94228.25;;;-4.21;83.05
85266;BME280;75676;49.522;19.724;2024-01-11T23:17:34;94224.66;;;-4.17;83.66
85266;BME280;75676;49.522;19.724;2024-01-11T23:20:01;94222.81;;;-4.16;83.25
85266;BME280;75676;49.522;19.724;2024-01-11T23:22:29;94224.97;;;-4.18;83.62
85266;BME280;75676;49.522;19.724;2024-01-11T23:24:55;94224.56;;;-4.20;83.41
85266;BME280;75676;49.522;19.724;2024-01-11T23:27:29;94227.88;;;-4.04;82.23
85266;BME280;75676;49.522;19.724;2024-01-11T23:29:55;94221.72;;;-4.15;82.83
85266;BME280;75676;49.522;19.724;2024-01-11T23:32:21;94229.63;;;-4.08;82.55
85266;BME280;75676;49.522;19.724;2024-01-11T23:34:47;94235.06;;;-4.13;82.68
85266;BME280;75676;49.522;19.724;2024-01-11T23:37:14;94241.72;;;-4.12;83.14
85266;BME280;75676;49.522;19.724;2024-01-11T23:39:42;94238.88;;;-4.23;82.55
85266;BME280;75676;49.522;19.724;2024-01-11T23:42:08;94240.03;;;-4.20;81.97
85266;BME280;75676;49.522;19.724;2024-01-11T23:44:34;94247.38;;;-4.22;81.43
85266;BME280;75676;49.522;19.724;2024-01-11T23:47:01;94238.47;;;-4.25;82.26
85266;BME280;75676;49.522;19.724;2024-01-11T23:49:27;94240.38;;;-4.38;82.64
85266;BME280;75676;49.522;19.724;2024-01-11T23:51:53;94242.28;;;-4.19;81.22
85266;BME280;75676;49.522;19.724;2024-01-11T23:54:19;94238.81;;;-4.27;82.10
85266;BME280;75676;49.522;19.724;2024-01-11T23:56:45;94237.81;;;-4.22;82.79
85266;BME280;75676;49.522;19.724;2024-01-11T23:59:11;94247.47;;;-4.19;82.34
